Flight Track Log - Related Links

Times and Time Zones

All times are in EDT time to prevent confusion due to time zone crossing. See the DAL268 flight status page for this flight to view local times or setup timezone preferences in your user account.

Time Position Orientation Groundspeed Altitude Reporting Facility
EDT Latitude Longitude Course Direction KTS MPH feet Rate Location/Type
Sun 02:49:57 PM 37.6150 -122.3820 North  Level FlightAware ADS-B
Sun 02:52:00 PM 37.6990 -122.0863 67° East  Level FlightAware Approximate
Sun 02:53:00 PM 37.7524 -121.9476 65° Northeast  Level FlightAware Approximate
Sun 02:54:00 PM 37.8000 -121.8064 90° East  Level FlightAware Approximate
Sun 02:55:00 PM 37.8455 -121.6636 67° East  Level FlightAware Approximate
Sun 02:56:00 PM 37.8906 -121.5210 72° East  Level FlightAware Approximate
Sun 02:57:00 PM 37.9437 -121.3824 63° Northeast  Level FlightAware Approximate
Sun 02:58:00 PM 37.9879 -121.2382 69° East  Level FlightAware Approximate
Sun 02:59:00 PM 38.0305 -121.0931 70° East  Level FlightAware Approximate
Sun 03:00:00 PM 38.0759 -120.9510 70° East  Level FlightAware Approximate
Sun 03:03:00 PM 37.7089 -122.0610 63° Northeast  Level FlightAware Approximate
Sun 03:05:00 PM 37.6875 -122.1209 67° East  Level FlightAware Approximate
Sun 03:06:00 PM 37.7412 -121.9785 65° Northeast  Level FlightAware Approximate
Sun 03:07:00 PM 37.7933 -121.8350 65° Northeast  Level FlightAware Approximate
Sun 03:11:53 PM 37.6120 -122.3770 31° Northeast 110 127  Level FlightAware ADS-B
Sun 03:12:26 PM 37.6342 -122.3620 28° Northeast 169 194 800 1,535 Climbing FlightAware ADS-B
Sun 03:12:36 PM 37.6400 -122.3550 44° Northeast 178 205 1,100 1,778 Climbing FlightAware ADS-B
Sun 03:12:53 PM 37.6497 -122.3400 51° Northeast 205 236 1,600 1,636 Climbing FlightAware ADS-B
Sun 03:13:09 PM 37.6602 -122.3250 49° Northeast 229 264 2,000 1,742 Climbing FlightAware ADS-B
Sun 03:13:24 PM 37.6711 -122.3090 49° Northeast 245 282 2,500 2,308 Climbing FlightAware ADS-B
Sun 03:13:35 PM 37.6792 -122.2970 50° Northeast 252 290 3,000 2,769 Climbing FlightAware ADS-B
Sun 03:13:50 PM 37.6920 -122.2800 46° Northeast 261 300 3,700 2,710 Climbing FlightAware ADS-B
Sun 03:14:06 PM 37.7050 -122.2630 46° Northeast 270 311 4,400 3,000 Climbing FlightAware ADS-B
Sun 03:14:26 PM 37.7228 -122.2400 46° Northeast 274 315 5,500 3,167 Climbing FlightAware ADS-B
Sun 03:14:42 PM 37.7368 -122.2220 45° Northeast 277 319 6,300 3,081 Climbing FlightAware ADS-B
Sun 03:15:03 PM 37.7562 -122.1970 46° Northeast 281 323 7,400 3,188 Climbing FlightAware ADS-B
Sun 03:15:14 PM 37.7672 -122.1830 45° Northeast 284 327 8,000 3,103 Climbing FlightAware ADS-B
Sun 03:15:32 PM 37.7832 -122.1630 45° Northeast 286 329 8,900 3,120 Climbing FlightAware ADS-B
Sun 03:15:39 PM 37.7894 -122.1530 52° Northeast 287 330 9,300 3,000 Climbing FlightAware ADS-B
Sun 03:15:46 PM 37.7940 -122.1430 60° Northeast 289 333 9,600 2,143 Climbing FlightAware ADS-B
Sun 03:15:53 PM 37.7978 -122.1330 64° Northeast 292 336 9,800 2,182 Climbing FlightAware ADS-B
Sun 03:15:57 PM 37.8000 -122.1260 68° East 296 341 10,000 1,333 Climbing FlightAware ADS-B
Sun 03:16:20 PM 37.8089 -122.0850 75° East 325 374 10,400 1,200 Climbing FlightAware ADS-B
Sun 03:16:32 PM 37.8143 -122.0640 72° East 336 387 10,700 1,756 Climbing FlightAware ADS-B
Sun 03:17:01 PM 37.8296 -122.0080 71° East 359 413 11,600 1,800 Climbing FlightAware ADS-B
Sun 03:17:32 PM 37.8457 -121.9450 72° East 379 436 12,500 1,881 Climbing FlightAware ADS-B
Sun 03:18:08 PM 37.8653 -121.8660 73° East 398 458 13,700 1,846 Climbing FlightAware ADS-B
Sun 03:18:37 PM 37.8814 -121.8000 73° East 414 476 14,500 1,770 Climbing FlightAware ADS-B
Sun 03:19:09 PM 37.9009 -121.7260 72° East 428 493 15,500 2,129 Climbing FlightAware ADS-B
Sun 03:19:39 PM 37.9188 -121.6540 72° East 431 496 16,700 2,066 Climbing FlightAware ADS-B
Sun 03:20:10 PM 37.9363 -121.5770 74° East 441 507 17,600 2,043 Climbing FlightAware ADS-B
Sun 03:20:26 PM 37.9453 -121.5380 74° East 442 509 18,300 2,043 Climbing FlightAware ADS-B
Sun 03:20:57 PM 37.9650 -121.4590 72° East 452 520 19,200 1,791 Climbing FlightAware ADS-B
Sun 03:21:33 PM 37.9871 -121.3680 73° East 461 531 20,300 1,727 Climbing FlightAware ADS-B
Sun 03:22:03 PM 38.0060 -121.2900 73° East 469 540 21,100 1,541 Climbing FlightAware ADS-B
Sun 03:22:47 PM 38.0340 -121.1720 73° East 480 552 22,200 1,575 Climbing FlightAware ADS-B
Sun 03:23:23 PM 38.0570 -121.0770 73° East 486 559 23,200 1,606 Climbing FlightAware ADS-B
Sun 03:23:58 PM 38.0790 -120.9840 73° East 491 565 24,100 1,500 Climbing FlightAware ADS-B
Sun 03:24:35 PM 38.1050 -120.8780 73° East 499 574 25,000 1,397 Climbing FlightAware ADS-B
Sun 03:25:11 PM 38.1300 -120.7760 73° East 505 581 25,800 1,286 Climbing FlightAware ADS-B
Sun 03:25:45 PM 38.1530 -120.6780 73° East 509 586 26,500 1,500 Climbing FlightAware ADS-B
Sun 03:26:23 PM 38.1790 -120.5710 73° East 508 585 27,600 1,800 Climbing FlightAware ADS-B
Sun 03:26:55 PM 38.2010 -120.4790 73° East 506 582 28,600 1,676 Climbing FlightAware ADS-B
Sun 03:27:31 PM 38.2240 -120.3800 73° East 504 580 29,500 1,588 Climbing FlightAware ADS-B
Sun 03:28:03 PM 38.2460 -120.2880 73° East 501 577 30,400 1,636 Climbing FlightAware ADS-B
Sun 03:28:37 PM 38.2690 -120.1910 73° East 498 573 31,300 1,629 Climbing FlightAware ADS-B
Sun 03:29:13 PM 38.2860 -120.0890 78° East 494 568 32,300 1,459 Climbing FlightAware ADS-B
Sun 03:29:51 PM 38.3030 -119.9840 78° East 493 567 33,100 1,352 Climbing FlightAware ADS-B
Sun 03:30:24 PM 38.3190 -119.8880 78° East 491 565 33,900 1,433 Climbing FlightAware ADS-B
Sun 03:30:58 PM 38.3350 -119.7910 78° East 489 563 34,700 1,286 Climbing FlightAware ADS-B
Sun 03:31:34 PM 38.3530 -119.6920 77° East 487 560 35,400 1,135 Climbing FlightAware ADS-B
Sun 03:32:12 PM 38.3710 -119.5840 78° East 487 560 36,100 1,054 Climbing FlightAware ADS-B
Sun 03:32:48 PM 38.3880 -119.4840 78° East 485 558 36,700 783 Climbing FlightAware ADS-B
Sun 03:33:21 PM 38.4030 -119.3930 78° East 487 560 37,000 257 Climbing FlightAware ADS-B
Sun 03:33:58 PM 38.4210 -119.2870 78° East 489 563 37,000  Level FlightAware ADS-B
Sun 03:34:30 PM 38.4350 -119.2030 78° East 488 562 37,000  Level FlightAware ADS-B
Sun 03:35:05 PM 38.4510 -119.1020 79° East 487 560 37,000  Level FlightAware ADS-B
Sun 03:35:40 PM 38.4670 -119.0030 78° East 485 558 37,000  Level FlightAware ADS-B
Sun 03:36:15 PM 38.4820 -118.9050 79° East 485 558 37,000  Level FlightAware ADS-B
Sun 03:36:50 PM 38.4980 -118.8070 78° East 486 559 37,000  Level FlightAware ADS-B
Sun 03:37:24 PM 38.5120 -118.7140 79° East 487 560 37,000  Level FlightAware ADS-B
Sun 03:37:58 PM 38.5280 -118.6120 79° East 487 560 37,000  Level FlightAware ADS-B
Sun 03:38:33 PM 38.5420 -118.5190 79° East 489 563 37,000  Level FlightAware ADS-B
Sun 03:39:10 PM 38.5580 -118.4160 79° East 490 564 37,000  Level FlightAware ADS-B
Sun 03:39:41 PM 38.5720 -118.3240 79° East 489 563 37,000  Level FlightAware ADS-B
Sun 03:40:21 PM 38.5890 -118.2120 79° East 489 563 37,000  Level FlightAware ADS-B
Sun 03:40:58 PM 38.6050 -118.1090 79° East 490 564 37,000  Level FlightAware ADS-B
Sun 03:41:30 PM 38.6180 -118.0210 79° East 491 565 37,000  Level FlightAware ADS-B
Sun 03:42:12 PM 38.6330 -117.9200 79° East 491 565 37,000  Level FlightAware ADS-B
Sun 03:42:48 PM 38.6460 -117.8320 79° East 491 565 37,000  Level FlightAware ADS-B
Sun 03:43:24 PM 38.6600 -117.7450 78° East 491 565 37,000  Level FlightAware ADS-B
Sun 03:43:58 PM 38.6720 -117.6620 79° East 491 565 37,000  Level FlightAware ADS-B
Sun 03:44:46 PM 38.6900 -117.5460 79° East 491 565 37,000  Level FlightAware ADS-B
Sun 03:45:22 PM 38.7030 -117.4580 79° East 491 565 37,000  Level FlightAware ADS-B
Sun 03:45:59 PM 38.7170 -117.3680 79° East 491 565 37,000  Level FlightAware ADS-B
Sun 03:46:37 PM 38.7310 -117.2760 79° East 491 565 37,000  Level FlightAware ADS-B
Sun 03:47:14 PM 38.7440 -117.1860 79° East 491 565 37,000  Level FlightAware ADS-B
Sun 03:47:50 PM 38.7580 -117.0990 78° East 491 565 37,000  Level FlightAware ADS-B
Sun 03:48:26 PM 38.7710 -117.0110 79° East 491 565 37,000  Level FlightAware ADS-B
Sun 03:49:02 PM 38.7840 -116.9240 79° East 491 565 37,000  Level FlightAware ADS-B
Sun 03:49:38 PM 38.7970 -116.8360 79° East 491 565 37,000  Level FlightAware ADS-B
Sun 03:50:14 PM 38.8110 -116.7490 78° East 491 565 37,000  Level FlightAware ADS-B
Sun 03:50:51 PM 38.8240 -116.6590 79° East 491 565 37,000  Level FlightAware ADS-B
Sun 03:51:28 PM 38.8380 -116.5690 79° East 491 565 37,000  Level FlightAware ADS-B
Sun 03:52:17 PM 38.8736 -116.1933 79° East 485 558 37,000  Level Oakland Center
Sun 03:53:19 PM 38.8947 -116.0300 81° East 485 558 37,000  Level Oakland Center
Sun 03:54:49 PM 38.9292 -115.7706 80° East 488 562 37,000  Level Salt Lake Center
Sun 03:55:51 PM 38.9508 -115.5994 81° East 487 560 37,000  Level Salt Lake Center
Sun 03:56:53 PM 38.9722 -115.4250 81° East 492 566 37,000  Level Salt Lake Center
Sun 03:57:55 PM 38.9997 -115.2175 80° East 493 567 37,000 97 Level Salt Lake Center
Sun 03:58:57 PM 39.0208 -115.0439 81° East 493 567 37,200 435 Climbing Salt Lake Center
Sun 03:59:59 PM 39.0433 -114.8692 81° East 494 568 37,900 263 Climbing Salt Lake Center
Sun 04:05:47 PM 39.1640 -113.8220 81° East 514 592 39,000 170 Climbing FlightAware ADS-B
Sun 04:06:27 PM 39.1760 -113.7190 81° East 514 592 39,000  Level FlightAware ADS-B
Sun 04:07:05 PM 39.1900 -113.5830 82° East 513 590 39,000  Level FlightAware ADS-B
Sun 04:07:37 PM 39.2010 -113.4850 82° East 511 588 39,000  Level FlightAware ADS-B
Sun 04:08:20 PM 39.2120 -113.3780 82° East 511 588 39,000  Level FlightAware ADS-B
Sun 04:09:00 PM 39.2275 -113.2340 82° East 512 589 39,000  Level FlightAware ADS-B
Sun 04:09:33 PM 39.2379 -113.1360 82° East 513 590 39,000  Level FlightAware ADS-B
Sun 04:10:06 PM 39.2482 -113.0360 82° East 513 590 39,000  Level FlightAware ADS-B
Sun 04:10:36 PM 39.2577 -112.9450 82° East 512 589 39,000  Level FlightAware ADS-B
Sun 04:11:06 PM 39.2671 -112.8530 82° East 513 590 39,000  Level FlightAware ADS-B
Sun 04:11:37 PM 39.2768 -112.7590 82° East 514 592 39,000  Level FlightAware ADS-B
Sun 04:12:14 PM 39.2880 -112.6480 83° East 514 592 39,000  Level FlightAware ADS-B
Sun 04:12:42 PM 39.2967 -112.5630 82° East 515 593 39,000  Level FlightAware ADS-B
Sun 04:13:13 PM 39.3110 -112.4700 79° East 517 595 39,000  Level FlightAware ADS-B
Sun 04:13:45 PM 39.3278 -112.3740 77° East 517 595 39,000  Level FlightAware ADS-B
Sun 04:14:17 PM 39.3446 -112.2790 77° East 516 594 39,000  Level FlightAware ADS-B
Sun 04:14:47 PM 39.3610 -112.1880 77° East 516 594 39,000  Level FlightAware ADS-B
Sun 04:15:11 PM 39.3746 -112.1150 76° East 515 593 39,000  Level FlightAware ADS-B
Sun 04:15:28 PM 39.3860 -112.0670 73° East 517 595 39,000  Level FlightAware ADS-B
Sun 04:16:00 PM 39.4146 -111.9740 68° East 518 596 39,000  Level FlightAware ADS-B
Sun 04:16:31 PM 39.4427 -111.8860 68° East 517 595 39,000  Level FlightAware ADS-B
Sun 04:17:01 PM 39.4702 -111.8000 67° East 516 594 39,000  Level FlightAware ADS-B
Sun 04:17:31 PM 39.4979 -111.7140 67° East 516 594 39,000  Level FlightAware ADS-B
Sun 04:18:02 PM 39.5263 -111.6250 68° East 516 594 39,000  Level FlightAware ADS-B
Sun 04:18:32 PM 39.5539 -111.5390 67° East 516 594 39,000  Level FlightAware ADS-B
Sun 04:19:05 PM 39.5820 -111.4470 68° East 516 594 39,000  Level FlightAware ADS-B
Sun 04:19:36 PM 39.6085 -111.3560 69° East 517 595 39,000  Level FlightAware ADS-B
Sun 04:20:06 PM 39.6339 -111.2690 69° East 516 594 39,000  Level FlightAware ADS-B
Sun 04:20:38 PM 39.6605 -111.1760 70° East 517 595 39,000  Level FlightAware ADS-B
Sun 04:21:09 PM 39.6854 -111.0890 70° East 517 595 39,000  Level FlightAware ADS-B
Sun 04:21:42 PM 39.7135 -110.9900 70° East 517 595 39,000  Level FlightAware ADS-B
Sun 04:22:14 PM 39.7393 -110.9000 70° East 517 595 39,000  Level FlightAware ADS-B
Sun 04:22:46 PM 39.7670 -110.8050 69° East 517 595 39,000  Level FlightAware ADS-B
Sun 04:23:36 PM 39.8080 -110.6650 69° East 517 595 39,000  Level FlightAware ADS-B
Sun 04:23:58 PM 39.8273 -110.5990 69° East 517 595 39,000  Level FlightAware ADS-B
Sun 04:24:47 PM 39.8610 -110.4830 69° East 517 595 39,000  Level FlightAware ADS-B
Sun 04:26:04 PM 39.9250 -110.2290 72° East 516 594 39,000  Level FlightAware ADS-B
Sun 04:26:35 PM 39.9470 -110.1430 72° East 514 592 39,000  Level FlightAware ADS-B
Sun 04:27:13 PM 39.9720 -110.0400 72° East 514 592 39,000  Level FlightAware ADS-B
Sun 04:27:58 PM 40.0070 -109.8950 72° East 513 590 39,000  Level FlightAware ADS-B
Sun 04:28:31 PM 40.0300 -109.8010 72° East 512 589 39,000  Level FlightAware ADS-B
Sun 04:29:08 PM 40.0560 -109.6920 73° East 511 588 39,000  Level FlightAware ADS-B
Sun 04:29:40 PM 40.0800 -109.5950 72° East 512 589 39,000  Level FlightAware ADS-B
Sun 04:30:16 PM 40.1040 -109.4940 73° East 512 589 39,000  Level FlightAware ADS-B
Sun 04:30:47 PM 40.1270 -109.3990 72° East 512 589 39,000  Level FlightAware ADS-B
Sun 04:31:28 PM 40.1550 -109.2790 73° East 511 588 39,000  Level FlightAware ADS-B
Sun 04:32:08 PM 40.1830 -109.1610 73° East 512 589 39,000  Level FlightAware ADS-B
Sun 04:32:43 PM 40.2080 -109.0570 72° East 514 592 39,000  Level FlightAware ADS-B
Sun 04:33:16 PM 40.2300 -108.9620 73° East 514 592 39,000  Level FlightAware ADS-B
Sun 04:33:50 PM 40.2540 -108.8570 73° East 515 593 39,000  Level FlightAware ADS-B
Sun 04:34:26 PM 40.2790 -108.7530 72° East 515 593 39,000  Level FlightAware ADS-B
Sun 04:35:02 PM 40.3040 -108.6450 73° East 514 592 39,000  Level FlightAware ADS-B
Sun 04:35:39 PM 40.3290 -108.5350 73° East 514 592 39,000  Level FlightAware ADS-B
Sun 04:36:14 PM 40.3530 -108.4270 74° East 514 592 39,000  Level FlightAware ADS-B
Sun 04:36:45 PM 40.3750 -108.3350 73° East 515 593 39,000  Level FlightAware ADS-B
Sun 04:37:22 PM 40.3990 -108.2290 73° East 516 594 39,000  Level FlightAware ADS-B
Sun 04:38:00 PM 40.4250 -108.1130 74° East 517 595 39,000  Level FlightAware ADS-B
Sun 04:38:36 PM 40.4470 -108.0140 74° East 517 595 39,000  Level FlightAware ADS-B
Sun 04:39:06 PM 40.4680 -107.9210 73° East 517 595 39,000  Level FlightAware ADS-B
Sun 04:39:46 PM 40.4960 -107.7930 74° East 518 596 39,000  Level FlightAware ADS-B
Sun 04:40:16 PM 40.5171 -107.7000 73° East 520 598 39,000  Level FlightAware ADS-B
Sun 04:41:03 PM 40.5460 -107.5680 74° East 519 597 39,000  Level FlightAware ADS-B
Sun 04:41:32 PM 40.5670 -107.4720 74° East 519 597 39,000  Level FlightAware ADS-B
Sun 04:42:09 PM 40.6010 -107.3650 67° East 519 597 39,000  Level FlightAware ADS-B
Sun 04:42:51 PM 40.6440 -107.2440 65° Northeast 518 596 39,000  Level FlightAware ADS-B
Sun 04:43:33 PM 40.6790 -107.1440 65° Northeast 518 596 39,000  Level FlightAware ADS-B
Sun 04:44:29 PM 40.7390 -106.9740 65° Northeast 517 595 39,000  Level FlightAware ADS-B
Sun 04:45:03 PM 40.7690 -106.8910 64° Northeast 517 595 39,000  Level FlightAware ADS-B
Sun 04:45:47 PM 40.8110 -106.7410 70° East 518 596 39,000  Level FlightAware ADS-B
Sun 04:46:24 PM 40.8370 -106.6270 73° East 517 595 39,000  Level FlightAware ADS-B
Sun 04:47:04 PM 40.8640 -106.5030 74° East 516 594 39,000  Level FlightAware ADS-B
Sun 04:47:42 PM 40.8860 -106.3910 75° East 517 595 39,000  Level FlightAware ADS-B
Sun 04:48:06 PM 40.9000 -106.3210 75° East 516 594 39,000  Level FlightAware ADS-B
Sun 04:48:42 PM 40.9230 -106.2060 75° East 517 595 39,000  Level FlightAware ADS-B
Sun 04:49:18 PM 40.9450 -106.0950 75° East 517 595 39,000  Level FlightAware ADS-B
Sun 04:49:54 PM 40.9660 -105.9850 76° East 517 595 39,000  Level FlightAware ADS-B
Sun 04:50:28 PM 40.9870 -105.8810 75° East 517 595 39,000  Level FlightAware ADS-B
Sun 04:51:02 PM 41.0070 -105.7780 76° East 517 595 39,000  Level FlightAware ADS-B
Sun 04:51:40 PM 41.0290 -105.6610 76° East 517 595 39,000  Level FlightAware ADS-B
Sun 04:52:12 PM 41.0480 -105.5620 76° East 516 594 39,000  Level FlightAware ADS-B
Sun 04:52:50 PM 41.0710 -105.4450 75° East 517 595 39,000  Level FlightAware ADS-B
Sun 04:53:22 PM 41.0890 -105.3510 76° East 516 594 39,000  Level FlightAware ADS-B
Sun 04:53:56 PM 41.1080 -105.2470 76° East 516 594 39,000  Level FlightAware ADS-B
Sun 04:54:40 PM 41.1345 -105.1090 76° East 517 595 39,000  Level FlightAware ADS-B
Sun 04:55:10 PM 41.1520 -105.0160 76° East 517 595 39,000  Level FlightAware ADS-B
Sun 04:55:41 PM 41.1698 -104.9200 76° East 517 595 39,000  Level FlightAware ADS-B
Sun 04:56:12 PM 41.1874 -104.8250 76° East 516 594 39,000  Level FlightAware ADS-B
Sun 04:56:42 PM 41.2045 -104.7330 76° East 517 595 39,000  Level FlightAware ADS-B
Sun 04:57:13 PM 41.2215 -104.6390 76° East 518 596 39,000  Level FlightAware ADS-B
Sun 04:57:43 PM 41.2385 -104.5470 76° East 517 595 39,000  Level FlightAware ADS-B
Sun 04:58:03 PM 41.2497 -104.4850 76° East 517 595 39,000  Level FlightAware ADS-B
Sun 04:58:33 PM 41.2710 -104.3940 73° East 517 595 39,000  Level FlightAware ADS-B
Sun 04:59:04 PM 41.2950 -104.3010 71° East 517 595 39,000  Level FlightAware ADS-B
Sun 04:59:37 PM 41.3214 -104.2010 71° East 517 595 39,000  Level FlightAware ADS-B
Sun 05:00:08 PM 41.3456 -104.1090 71° East 518 596 39,000  Level FlightAware ADS-B
Sun 05:00:38 PM 41.3694 -104.0190 71° East 517 595 39,000  Level FlightAware ADS-B
Sun 05:01:08 PM 41.3931 -103.9280 71° East 518 596 39,000  Level FlightAware ADS-B
Sun 05:01:39 PM 41.4172 -103.8360 71° East 518 596 39,000  Level FlightAware ADS-B
Sun 05:02:09 PM 41.4410 -103.7460 71° East 518 596 39,000  Level FlightAware ADS-B
Sun 05:02:41 PM 41.4665 -103.6490 71° East 517 595 39,000  Level FlightAware ADS-B
Sun 05:03:12 PM 41.4905 -103.5580 71° East 518 596 39,000  Level FlightAware ADS-B
Sun 05:03:43 PM 41.5153 -103.4640 71° East 518 596 39,000  Level FlightAware ADS-B
Sun 05:04:14 PM 41.5401 -103.3710 70° East 518 596 39,000  Level FlightAware ADS-B
Sun 05:04:45 PM 41.5649 -103.2780 70° East 517 595 39,000  Level FlightAware ADS-B
Sun 05:05:21 PM 41.5942 -103.1690 70° East 517 595 39,000  Level FlightAware ADS-B
Sun 05:05:52 PM 41.6192 -103.0770 70° East 516 594 39,000  Level FlightAware ADS-B
Sun 05:06:22 PM 41.6441 -102.9860 70° East 517 595 39,000  Level FlightAware ADS-B
Sun 05:07:01 PM 41.6763 -102.8700 70° East 517 595 39,000  Level FlightAware ADS-B
Sun 05:07:32 PM 41.7013 -102.7790 70° East 518 596 39,000  Level FlightAware ADS-B
Sun 05:08:03 PM 41.7271 -102.6860 70° East 518 596 39,000  Level FlightAware ADS-B
Sun 05:08:39 PM 41.7554 -102.5770 71° East 518 596 39,000  Level FlightAware ADS-B
Sun 05:09:10 PM 41.7794 -102.4810 71° East 517 595 39,000  Level FlightAware ADS-B
Sun 05:10:02 PM 41.8189 -102.3260 71° East 517 595 39,000  Level FlightAware ADS-B
Sun 05:10:34 PM 41.8435 -102.2300 71° East 517 595 39,000  Level FlightAware ADS-B
Sun 05:11:06 PM 41.8687 -102.1320 71° East 518 596 39,000  Level FlightAware ADS-B
Sun 05:11:37 PM 41.8931 -102.0380 71° East 519 597 39,000  Level FlightAware ADS-B
Sun 05:12:08 PM 41.9178 -101.9430 71° East 519 597 39,000  Level FlightAware ADS-B
Sun 05:12:39 PM 41.9419 -101.8500 71° East 518 596 39,000  Level FlightAware ADS-B
Sun 05:13:13 PM 41.9685 -101.7470 71° East 518 596 39,000  Level FlightAware ADS-B
Sun 05:13:44 PM 41.9919 -101.6540 71° East 519 597 39,000  Level FlightAware ADS-B
Sun 05:14:21 PM 42.0083 -101.5800 71° East 513 590 39,000  Level Minneapolis Center
Sun 05:15:12 PM 42.0522 -101.3981 72° East 519 597 39,000  Level Denver Center
Sun 05:16:14 PM 42.0936 -101.2222 72° East 517 595 39,000  Level Denver Center
Sun 05:17:16 PM 42.1361 -101.0128 75° East 517 595 39,000  Level Denver Center
Sun 05:18:19 PM 42.1694 -100.8328 76° East 517 595 39,000  Level Denver Center
Sun 05:19:21 PM 42.2028 -100.6228 78° East 512 589 39,000  Level Denver Center
Sun 05:20:23 PM 42.2194 -100.4403 83° East 514 592 39,000  Level Denver Center
Sun 05:21:24 PM 42.2336 -100.2872 83° East 514 592 39,000  Level Denver Center
Sun 05:22:38 PM 42.2597 -99.9908 83° East 519 597 39,000  Level Minneapolis Center
Sun 05:23:29 PM 42.2739 -99.8236 83° East 518 596 39,000  Level Denver Center
Sun 05:24:31 PM 42.2892 -99.6408 83° East 520 598 39,000  Level Denver Center
Sun 05:25:33 PM 42.3050 -99.4456 84° East 521 600 39,000  Level Denver Center
Sun 05:26:35 PM 42.3219 -99.2503 83° East 522 601 39,000  Level Denver Center
Sun 05:27:37 PM 42.3372 -99.0536 84° East 524 603 39,000  Level Denver Center
Sun 05:28:39 PM 42.3539 -98.8192 84° East 524 603 39,000  Level Denver Center
Sun 05:29:41 PM 42.3681 -98.6233 84° East 523 602 39,000  Level Denver Center
Sun 05:35:55 PM 42.4490 -97.3880 84° East 527 606 39,000  Level FlightAware ADS-B
Sun 05:36:25 PM 42.4540 -97.2890 86° East 526 605 39,000  Level FlightAware ADS-B
Sun 05:37:09 PM 42.4630 -97.1450 85° East 526 605 39,000  Level FlightAware ADS-B
Sun 05:38:00 PM 42.4720 -96.9810 86° East 526 605 39,000  Level FlightAware ADS-B
Sun 05:38:36 PM 42.4790 -96.8580 86° East 526 605 39,000  Level FlightAware ADS-B
Sun 05:39:09 PM 42.4850 -96.7540 85° East 527 606 39,000  Level FlightAware ADS-B
Sun 05:39:45 PM 42.4910 -96.6330 86° East 527 606 39,000  Level FlightAware ADS-B
Sun 05:40:17 PM 42.4970 -96.5280 86° East 527 606 39,000  Level FlightAware ADS-B
Sun 05:40:51 PM 42.5020 -96.4160 86° East 527 606 39,000  Level FlightAware ADS-B
Sun 05:41:29 PM 42.5090 -96.2910 86° East 527 606 39,000  Level FlightAware ADS-B
Sun 05:42:05 PM 42.5140 -96.1720 87° East 527 606 39,000  Level FlightAware ADS-B
Sun 05:42:37 PM 42.5190 -96.0710 86° East 527 606 39,000  Level FlightAware ADS-B
Sun 05:43:15 PM 42.5250 -95.9470 86° East 526 605 39,000  Level FlightAware ADS-B
Sun 05:43:50 PM 42.5300 -95.8310 87° East 526 605 39,000  Level FlightAware ADS-B
Sun 05:44:29 PM 42.5300 -95.7030 90° East 526 605 39,000  Level FlightAware ADS-B
Sun 05:45:05 PM 42.5300 -95.5830 90° East 526 605 39,000  Level FlightAware ADS-B
Sun 05:45:39 PM 42.5300 -95.4700 90° East 526 605 39,000  Level FlightAware ADS-B
Sun 05:46:16 PM 42.5290 -95.3490 91° East 527 606 39,000  Level FlightAware ADS-B
Sun 05:46:39 PM 42.5290 -95.2710 90° East 527 606 39,000  Level FlightAware ADS-B
Sun 05:47:16 PM 42.5290 -95.1550 90° East 527 606 39,000  Level FlightAware ADS-B
Sun 05:47:51 PM 42.5290 -95.0350 90° East 528 608 39,000  Level FlightAware ADS-B
Sun 05:48:25 PM 42.5290 -94.9220 90° East 529 609 39,000  Level FlightAware ADS-B
Sun 05:49:01 PM 42.5290 -94.8040 90° East 530 610 39,000  Level FlightAware ADS-B
Sun 05:49:33 PM 42.5290 -94.7000 90° East 530 610 39,000  Level FlightAware ADS-B
Sun 05:50:15 PM 42.5290 -94.5600 90° East 530 610 39,000  Level FlightAware ADS-B
Sun 05:51:03 PM 42.5290 -94.3990 90° East 531 611 39,000  Level FlightAware ADS-B
Sun 05:51:36 PM 42.5300 -94.2910 89° East 531 611 39,000  Level FlightAware ADS-B
Sun 05:52:12 PM 42.5300 -94.1710 90° East 532 612 39,000  Level FlightAware ADS-B
Sun 05:52:49 PM 42.5300 -94.0470 90° East 532 612 39,000  Level FlightAware ADS-B
Sun 05:53:22 PM 42.5310 -93.9390 89° East 532 612 39,000  Level FlightAware ADS-B
Sun 05:53:56 PM 42.5320 -93.8250 89° East 531 611 39,000  Level FlightAware ADS-B
Sun 05:54:32 PM 42.5320 -93.7030 90° East 532 612 39,000  Level FlightAware ADS-B
Sun 05:55:07 PM 42.5330 -93.5920 89° East 531 611 39,000  Level FlightAware ADS-B
Sun 05:55:43 PM 42.5340 -93.4710 89° East 530 610 39,000  Level FlightAware ADS-B
Sun 05:56:19 PM 42.5350 -93.3510 89° East 528 608 39,000  Level FlightAware ADS-B
Sun 05:56:55 PM 42.5380 -93.2330 88° East 526 605 39,000  Level FlightAware ADS-B
Sun 05:57:27 PM 42.5420 -93.1270 87° East 524 603 39,000  Level FlightAware ADS-B
Sun 05:58:01 PM 42.5460 -93.0150 87° East 523 602 39,000  Level FlightAware ADS-B
Sun 05:58:39 PM 42.5490 -92.8920 88° East 524 603 39,000  Level FlightAware ADS-B
Sun 05:59:13 PM 42.5530 -92.7800 87° East 524 603 39,000  Level FlightAware ADS-B
Sun 05:59:49 PM 42.5550 -92.6620 89° East 524 603 39,000  Level FlightAware ADS-B
Sun 06:00:23 PM 42.5580 -92.5510 88° East 523 602 39,000  Level FlightAware ADS-B
Sun 06:00:59 PM 42.5610 -92.4350 88° East 523 602 39,000  Level FlightAware ADS-B
Sun 06:01:29 PM 42.5630 -92.3400 88° East 523 602 39,000  Level FlightAware ADS-B
Sun 06:02:09 PM 42.5660 -92.2080 88° East 525 604 39,000  Level FlightAware ADS-B
Sun 06:02:45 PM 42.5680 -92.0870 89° East 526 605 39,000  Level FlightAware ADS-B
Sun 06:03:25 PM 42.5710 -91.9560 88° East 527 606 39,000  Level FlightAware ADS-B
Sun 06:04:02 PM 42.5740 -91.8330 88° East 527 606 39,000  Level FlightAware ADS-B
Sun 06:04:37 PM 42.5760 -91.7160 89° East 529 609 39,000  Level FlightAware ADS-B
Sun 06:05:10 PM 42.5770 -91.6110 89° East 529 609 39,000  Level FlightAware ADS-B
Sun 06:05:47 PM 42.5790 -91.4840 89° East 529 609 39,000  Level FlightAware ADS-B
Sun 06:06:23 PM 42.5810 -91.3640 89° East 530 610 39,000  Level FlightAware ADS-B
Sun 06:06:59 PM 42.5830 -91.2470 89° East 530 610 39,000  Level FlightAware ADS-B
Sun 06:07:31 PM 42.5840 -91.1390 89° East 531 611 39,000  Level FlightAware ADS-B
Sun 06:08:07 PM 42.5860 -91.0190 89° East 531 611 39,000  Level FlightAware ADS-B
Sun 06:08:39 PM 42.5870 -90.9120 89° East 531 611 39,000  Level FlightAware ADS-B
Sun 06:09:16 PM 42.5880 -90.7920 89° East 531 611 39,000  Level FlightAware ADS-B
Sun 06:09:49 PM 42.5890 -90.6810 89° East 532 612 39,000  Level FlightAware ADS-B
Sun 06:10:24 PM 42.5900 -90.5670 89° East 532 612 39,000  Level FlightAware ADS-B
Sun 06:11:00 PM 42.5910 -90.4460 89° East 531 611 39,000  Level FlightAware ADS-B
Sun 06:11:32 PM 42.5920 -90.3390 89° East 531 611 39,000  Level FlightAware ADS-B
Sun 06:12:11 PM 42.5920 -90.2120 90° East 532 612 39,000  Level FlightAware ADS-B
Sun 06:12:47 PM 42.5930 -90.0890 89° East 532 612 39,000  Level FlightAware ADS-B
Sun 06:13:17 PM 42.5930 -89.9890 90° East 533 613 39,000  Level FlightAware ADS-B
Sun 06:13:57 PM 42.5930 -89.8560 90° East 533 613 39,000  Level FlightAware ADS-B
Sun 06:14:38 PM 42.5930 -89.7240 90° East 533 613 39,000  Level FlightAware ADS-B
Sun 06:15:13 PM 42.5930 -89.6020 90° East 534 615 39,000  Level FlightAware ADS-B
Sun 06:15:44 PM 42.5930 -89.5010 90° East 533 613 39,000  Level FlightAware ADS-B
Sun 06:16:21 PM 42.5930 -89.3750 90° East 533 613 39,000  Level FlightAware ADS-B
Sun 06:16:57 PM 42.5920 -89.2550 91° East 533 613 39,000  Level FlightAware ADS-B
Sun 06:17:32 PM 42.5920 -89.1410 90° East 533 613 39,000  Level FlightAware ADS-B
Sun 06:18:04 PM 42.5910 -89.0340 91° East 534 615 39,000  Level FlightAware ADS-B
Sun 06:18:43 PM 42.5910 -88.9010 90° East 534 615 39,000  Level FlightAware ADS-B
Sun 06:19:18 PM 42.5900 -88.7860 91° East 535 616 39,000  Level FlightAware ADS-B
Sun 06:19:53 PM 42.5890 -88.6670 91° East 536 617 39,000  Level FlightAware ADS-B
Sun 06:20:26 PM 42.5880 -88.5590 91° East 536 617 39,000  Level FlightAware ADS-B
Sun 06:21:03 PM 42.5860 -88.4330 91° East 536 617 39,000  Level FlightAware ADS-B
Sun 06:21:35 PM 42.5850 -88.3240 91° East 536 617 39,000  Level FlightAware ADS-B
Sun 06:22:10 PM 42.5840 -88.2120 91° East 536 617 39,000  Level FlightAware ADS-B
Sun 06:22:44 PM 42.5820 -88.0950 91° East 535 616 39,000  Level FlightAware ADS-B
Sun 06:23:22 PM 42.5800 -87.9680 91° East 536 617 39,000  Level FlightAware ADS-B
Sun 06:23:58 PM 42.5780 -87.8490 91° East 537 618 39,000  Level FlightAware ADS-B
Sun 06:24:32 PM 42.5760 -87.7320 91° East 537 618 39,000  Level FlightAware ADS-B
Sun 06:25:08 PM 42.5740 -87.6140 91° East 537 618 39,000  Level FlightAware ADS-B
Sun 06:25:40 PM 42.5720 -87.5020 91° East 537 618 39,000  Level FlightAware ADS-B
Sun 06:26:20 PM 42.5700 -87.3700 91° East 536 617 39,000  Level FlightAware ADS-B
Sun 06:26:52 PM 42.5670 -87.2660 92° East 536 617 39,000  Level FlightAware ADS-B
Sun 06:27:28 PM 42.5650 -87.1470 91° East 536 617 39,000  Level FlightAware ADS-B
Sun 06:28:04 PM 42.5620 -87.0250 92° East 535 616 39,000  Level FlightAware ADS-B
Sun 06:28:34 PM 42.5600 -86.9240 92° East 534 615 39,000  Level FlightAware ADS-B
Sun 06:29:12 PM 42.5560 -86.7940 92° East 533 613 39,000  Level FlightAware ADS-B
Sun 06:29:38 PM 42.5540 -86.7120 92° East 532 612 39,000  Level FlightAware ADS-B
Sun 06:30:14 PM 42.5510 -86.5940 92° East 531 611 39,000  Level FlightAware ADS-B
Sun 06:30:52 PM 42.5480 -86.4720 92° East 529 609 39,000  Level FlightAware ADS-B
Sun 06:31:26 PM 42.5440 -86.3500 93° East 527 606 39,000  Level FlightAware ADS-B
Sun 06:32:02 PM 42.5410 -86.2370 92° East 526 605 39,000  Level FlightAware ADS-B
Sun 06:32:32 PM 42.5380 -86.1370 92° East 525 604 39,000  Level FlightAware ADS-B
Sun 06:33:11 PM 42.5340 -86.0080 92° East 524 603 39,000  Level FlightAware ADS-B
Sun 06:33:45 PM 42.5300 -85.8970 93° East 524 603 39,000  Level FlightAware ADS-B
Sun 06:34:20 PM 42.5260 -85.7810 93° East 522 601 39,000  Level FlightAware ADS-B
Sun 06:34:57 PM 42.5220 -85.6610 93° East 521 600 39,000  Level FlightAware ADS-B
Sun 06:35:29 PM 42.5180 -85.5590 93° East 520 598 39,000  Level FlightAware ADS-B
Sun 06:36:04 PM 42.5140 -85.4460 93° East 519 597 39,000  Level FlightAware ADS-B
Sun 06:36:42 PM 42.5100 -85.3240 93° East 520 598 39,000  Level FlightAware ADS-B
Sun 06:37:06 PM 42.5060 -85.2460 94° East 520 598 39,000  Level FlightAware ADS-B
Sun 06:37:42 PM 42.5020 -85.1230 92° East 521 600 39,000  Level FlightAware ADS-B
Sun 06:38:16 PM 42.4970 -85.0160 94° East 522 601 39,000  Level FlightAware ADS-B
Sun 06:38:56 PM 42.4920 -84.8870 93° East 522 601 39,000  Level FlightAware ADS-B
Sun 06:39:32 PM 42.4870 -84.7720 93° East 523 602 39,000  Level FlightAware ADS-B
Sun 06:40:04 PM 42.4820 -84.6620 93° East 523 602 39,000  Level FlightAware ADS-B
Sun 06:40:40 PM 42.4770 -84.5490 93° East 523 602 39,000  Level FlightAware ADS-B
Sun 06:41:16 PM 42.4720 -84.4300 93° East 525 604 39,000  Level FlightAware ADS-B
Sun 06:41:56 PM 42.4660 -84.2980 93° East 525 604 39,000  Level FlightAware ADS-B
Sun 06:42:27 PM 42.4610 -84.2020 94° East 524 603 39,000  Level FlightAware ADS-B
Sun 06:43:03 PM 42.4550 -84.0760 94° East 524 603 39,000  Level FlightAware ADS-B
Sun 06:43:35 PM 42.4500 -83.9700 94° East 525 604 39,000  Level FlightAware ADS-B
Sun 06:44:12 PM 42.4440 -83.8510 94° East 524 603 39,000  Level FlightAware ADS-B
Sun 06:44:47 PM 42.4380 -83.7360 94° East 524 603 39,000  Level FlightAware ADS-B
Sun 06:45:23 PM 42.4320 -83.6180 94° East 524 603 39,000  Level FlightAware ADS-B
Sun 06:45:57 PM 42.4250 -83.5070 95° East 524 603 39,000  Level FlightAware ADS-B
Sun 06:46:31 PM 42.4190 -83.3960 94° East 525 604 39,000  Level FlightAware ADS-B
Sun 06:47:07 PM 42.4130 -83.2780 94° East 525 604 39,000  Level FlightAware ADS-B
Sun 06:47:43 PM 42.4060 -83.1600 95° East 525 604 39,000  Level FlightAware ADS-B
Sun 06:48:15 PM 42.4000 -83.0590 95° East 525 604 39,000  Level FlightAware ADS-B
Sun 06:48:51 PM 42.3930 -82.9420 95° East 524 603 39,000  Level FlightAware ADS-B
Sun 06:49:29 PM 42.3860 -82.8140 94° East 524 603 39,000  Level FlightAware ADS-B
Sun 06:50:01 PM 42.3800 -82.7140 95° East 525 604 39,000  Level FlightAware ADS-B
Sun 06:50:37 PM 42.3740 -82.5900 94° East 525 604 39,000  Level FlightAware ADS-B
Sun 06:51:07 PM 42.3710 -82.4970 92° East 525 604 39,000  Level FlightAware ADS-B
Sun 06:51:45 PM 42.3660 -82.3740 93° East 525 604 39,000  Level FlightAware ADS-B
Sun 06:52:21 PM 42.3620 -82.2530 93° East 525 604 39,000  Level FlightAware ADS-B
Sun 06:53:02 PM 42.3570 -82.1330 93° East 527 606 39,000  Level FlightAware ADS-B
Sun 06:53:34 PM 42.3510 -82.0160 94° East 527 606 39,000  Level FlightAware ADS-B
Sun 06:54:14 PM 42.3460 -81.8930 93° East 528 608 39,000  Level FlightAware ADS-B
Sun 06:54:44 PM 42.3420 -81.8030 93° East 528 608 39,000  Level FlightAware ADS-B
Sun 06:55:20 PM 42.3360 -81.6730 94° East 529 609 39,000  Level FlightAware ADS-B
Sun 06:56:06 PM 42.3280 -81.5130 94° East 528 608 39,000  Level FlightAware ADS-B
Sun 06:56:48 PM 42.3220 -81.3790 93° East 524 603 39,000  Level FlightAware ADS-B
Sun 06:57:24 PM 42.3160 -81.2650 94° East 523 602 39,000  Level FlightAware ADS-B
Sun 06:57:54 PM 42.3110 -81.1600 94° East 520 598 39,000  Level FlightAware ADS-B
Sun 06:58:32 PM 42.3040 -81.0380 94° East 518 596 39,000  Level FlightAware ADS-B
Sun 06:59:09 PM 42.2980 -80.9220 94° East 520 598 39,000  Level FlightAware ADS-B
Sun 06:59:44 PM 42.2920 -80.8060 94° East 525 604 39,000  Level FlightAware ADS-B
Sun 07:00:18 PM 42.2860 -80.6950 94° East 526 605 39,000  Level FlightAware ADS-B
Sun 07:00:52 PM 42.2800 -80.5830 94° East 525 604 39,000  Level FlightAware ADS-B
Sun 07:01:28 PM 42.2730 -80.4670 95° East 525 604 39,000  Level FlightAware ADS-B
Sun 07:02:04 PM 42.2670 -80.3490 94° East 523 602 39,000  Level FlightAware ADS-B
Sun 07:02:40 PM 42.2600 -80.2360 95° East 521 600 39,000  Level FlightAware ADS-B
Sun 07:03:12 PM 42.2540 -80.1310 94° East 520 598 39,000  Level FlightAware ADS-B
Sun 07:03:44 PM 42.2480 -80.0330 95° East 520 598 39,000  Level FlightAware ADS-B
Sun 07:04:24 PM 42.2400 -79.9000 95° East 518 596 39,000  Level FlightAware ADS-B
Sun 07:04:54 PM 42.2340 -79.8110 95° East 518 596 39,000  Level FlightAware ADS-B
Sun 07:05:29 PM 42.2270 -79.7010 95° East 519 597 39,000  Level FlightAware ADS-B
Sun 07:06:05 PM 42.2190 -79.5820 95° East 519 597 39,000  Level FlightAware ADS-B
Sun 07:06:44 PM 42.2120 -79.4640 95° East 525 604 39,000  Level FlightAware ADS-B
Sun 07:07:19 PM 42.2040 -79.3490 95° East 533 613 39,000  Level FlightAware ADS-B
Sun 07:07:49 PM 42.1970 -79.2370 95° East 539 620 39,000  Level FlightAware ADS-B
Sun 07:08:29 PM 42.1830 -79.1130 99° East 539 620 39,000  Level FlightAware ADS-B
Sun 07:09:09 PM 42.1530 -78.9750 106° East 535 616 39,000  Level FlightAware ADS-B
Sun 07:09:44 PM 42.1250 -78.8650 109° East 533 613 39,000  Level FlightAware ADS-B
Sun 07:10:19 PM 42.1000 -78.7670 109° East 532 612 39,000  Level FlightAware ADS-B
Sun 07:10:54 PM 42.0720 -78.6570 109° East 533 613 39,000  Level FlightAware ADS-B
Sun 07:11:29 PM 42.0420 -78.5380 109° East 533 613 39,000  Level FlightAware ADS-B
Sun 07:12:04 PM 42.0170 -78.4420 109° East 532 612 39,000  Level FlightAware ADS-B
Sun 07:12:44 PM 41.9820 -78.3030 109° East 534 615 39,000  Level FlightAware ADS-B
Sun 07:13:24 PM 41.9500 -78.1790 109° East 534 615 39,000  Level FlightAware ADS-B
Sun 07:13:54 PM 41.9270 -78.0900 109° East 533 613 39,000  Level FlightAware ADS-B
Sun 07:14:29 PM 41.8970 -77.9740 109° East 533 613 39,000  Level FlightAware ADS-B
Sun 07:15:09 PM 41.8660 -77.8540 109° East 534 615 39,000  Level FlightAware ADS-B
Sun 07:15:39 PM 41.8400 -77.7570 110° East 534 615 39,000  Level FlightAware ADS-B
Sun 07:16:14 PM 41.8110 -77.6480 110° East 534 615 39,000  Level FlightAware ADS-B
Sun 07:16:54 PM 41.7780 -77.5230 109° East 535 616 39,000  Level FlightAware ADS-B
Sun 07:17:24 PM 41.7550 -77.4350 109° East 537 618 39,000  Level FlightAware ADS-B
Sun 07:18:01 PM 41.7210 -77.3080 110° East 537 618 39,000  Level FlightAware ADS-B
Sun 07:18:37 PM 41.6910 -77.1980 110° East 537 618 39,000  Level FlightAware ADS-B
Sun 07:19:01 PM 41.6707 -77.1218 110° East 39,000  Level FlightAware ADS-B
Sun 07:19:34 PM 41.6433 -77.0200 110° East 537 618 39,000  Level FlightAware ADS-B
Sun 07:20:05 PM 41.6170 -76.9234 110° East 536 617 39,000  Level FlightAware ADS-B
Sun 07:20:35 PM 41.5914 -76.8295 110° East 534 615 39,000  Level FlightAware ADS-B
Sun 07:21:08 PM 41.5639 -76.7289 110° East 533 613 39,000  Level FlightAware ADS-B
Sun 07:21:41 PM 41.5357 -76.6263 110° East 533 613 39,000 -94 Level FlightAware ADS-B
Sun 07:22:12 PM 41.5096 -76.5316 110° East 534 615 38,900 -1,200 Descending FlightAware ADS-B
Sun 07:22:46 PM 41.4806 -76.4271 110° East 536 617 37,700 -2,438 Descending FlightAware ADS-B
Sun 07:23:16 PM 41.4546 -76.3339 110° East 539 620 36,300 -2,800 Descending FlightAware ADS-B
Sun 07:23:46 PM 41.4285 -76.2403 110° East 542 624 34,900 -2,852 Descending FlightAware ADS-B
Sun 07:24:17 PM 41.4012 -76.1432 111° Southeast 543 625 33,400 -2,952 Descending FlightAware ADS-B
Sun 07:24:49 PM 41.3727 -76.0415 110° East 539 620 31,800 -2,762 Descending FlightAware ADS-B
Sun 07:25:20 PM 41.3462 -75.9474 111° Southeast 530 610 30,500 -2,323 Descending FlightAware ADS-B
Sun 07:25:51 PM 41.3200 -75.8547 111° Southeast 517 595 29,400 -2,226 Descending FlightAware ADS-B
Sun 07:26:22 PM 41.2940 -75.7632 111° Southeast 506 582 28,200 -2,262 Descending FlightAware ADS-B
Sun 07:26:52 PM 41.2687 -75.6783 112° Southeast 496 571 27,100 -2,300 Descending FlightAware ADS-B
Sun 07:27:22 PM 41.2413 -75.5938 113° Southeast 487 560 25,900 -2,226 Descending FlightAware ADS-B
Sun 07:27:54 PM 41.2132 -75.5097 114° Southeast 477 549 24,800 -2,190 Descending FlightAware ADS-B
Sun 07:28:25 PM 41.1856 -75.4276 114° Southeast 467 537 23,600 -1,770 Descending FlightAware ADS-B
Sun 07:28:55 PM 41.1591 -75.3491 114° Southeast 462 532 23,000 -600 Descending FlightAware ADS-B
Sun 07:29:25 PM 41.1327 -75.2711 114° Southeast 465 535 23,000  Level FlightAware ADS-B
Sun 07:29:58 PM 41.1039 -75.1860 114° Southeast 466 536 23,000  Level FlightAware ADS-B
Sun 07:30:28 PM 41.0772 -75.1073 114° Southeast 462 532 23,000  Level FlightAware ADS-B
Sun 07:30:58 PM 41.0509 -75.0300 114° Southeast 463 533 23,000  Level FlightAware ADS-B
Sun 07:31:29 PM 41.0241 -74.9514 114° Southeast 463 533 23,000  Level FlightAware ADS-B
Sun 07:31:42 PM 41.0126 -74.9170 114° Southeast 463 533 23,000  Level FlightAware ADS-B
Sun 07:31:50 PM 41.0063 -74.8956 111° Southeast 464 534 23,000  Level FlightAware ADS-B
Sun 07:32:11 PM 40.9938 -74.8386 106° East 466 536 23,000  Level FlightAware ADS-B
Sun 07:32:41 PM 40.9827 -74.7542 100° East 466 536 23,000  Level FlightAware ADS-B
Sun 07:33:11 PM 40.9737 -74.6694 98° East 465 535 23,000 -214 Level FlightAware ADS-B
Sun 07:33:37 PM 40.9662 -74.5973 98° East 463 533 22,800 -581 Descending FlightAware ADS-B
Sun 07:33:42 PM 40.9647 -74.5833 98° East 462 532 22,700 -1,622 Descending FlightAware ADS-B
Sun 07:34:14 PM 40.9553 -74.4948 98° East 455 524 21,800 -1,935 Descending FlightAware ADS-B
Sun 07:34:44 PM 40.9462 -74.4124 98° East 448 516 20,700 -2,262 Descending FlightAware ADS-B
Sun 07:35:15 PM 40.9370 -74.3294 98° East 442 509 19,500 -1,672 Descending FlightAware ADS-B
Sun 07:35:45 PM 40.9280 -74.2501 99° East 433 498 19,000 -588 Descending FlightAware ADS-B
Sun 07:36:06 PM 40.9218 -74.1968 99° East 411 473 19,000  Level FlightAware ADS-B
Sun 07:36:07 PM 40.9216 -74.1954 101° East 410 472 19,000  Level FlightAware ADS-B
Sun 07:36:15 PM 40.9179 -74.1750 103° East 399 459 19,000 -400 Level FlightAware ADS-B
Sun 07:36:22 PM 40.9137 -74.1592 109° East 392 451 18,900 -750 Descending FlightAware ADS-B
Sun 07:36:23 PM 40.9133 -74.1578 111° Southeast 391 450 18,900 -1,200 Level FlightAware ADS-B
Sun 07:36:32 PM 40.9064 -74.1392 116° Southeast 384 442 18,700 -1,000 Descending FlightAware ADS-B
Sun 07:36:35 PM 40.9030 -74.1319 122° Southeast 381 438 18,700 -1,200 Level FlightAware ADS-B
Sun 07:36:42 PM 40.8957 -74.1190 127° Southeast 375 432 18,500 -1,500 Descending FlightAware ADS-B
Sun 07:36:43 PM 40.8951 -74.1181 131° Southeast 376 433 18,500  Level FlightAware ADS-B
Sun 07:36:46 PM 40.8913 -74.1125 132° Southeast 371 427 18,500 -1,200 Level FlightAware ADS-B
Sun 07:36:53 PM 40.8822 -74.1013 137° Southeast 364 419 18,300 -1,385 Descending FlightAware ADS-B
Sun 07:36:59 PM 40.8749 -74.0941 143° Southeast 359 413 18,200 -750 Descending FlightAware ADS-B
Sun 07:37:01 PM 40.8718 -74.0915 148° Southeast 355 409 18,200 -667 Level FlightAware ADS-B
Sun 07:37:08 PM 40.8628 -74.0842 148° Southeast 350 403 18,100 -1,500 Descending FlightAware ADS-B
Sun 07:37:29 PM 40.8320 -74.0620 151° Southeast 346 398 17,500 -1,543 Descending FlightAware ADS-B
Sun 07:37:43 PM 40.8130 -74.0486 152° Southeast 345 397 17,200 -1,412 Descending FlightAware ADS-B
Sun 07:38:03 PM 40.7846 -74.0288 152° Southeast 341 392 16,700 -1,548 Descending FlightAware ADS-B
Sun 07:38:14 PM 40.7690 -74.0178 152° Southeast 339 390 16,400 -1,660 Descending FlightAware ADS-B
Sun 07:38:50 PM 40.7210 -73.9834 151° Southeast 333 383 15,400 -1,727 Descending FlightAware ADS-B
Sun 07:39:20 PM 40.6805 -73.9547 152° Southeast 329 379 14,500 -1,700 Descending FlightAware ADS-B
Sun 07:39:50 PM 40.6398 -73.9268 153° Southeast 326 375 13,700 -1,524 Descending FlightAware ADS-B
Sun 07:40:23 PM 40.5958 -73.8977 153° Southeast 321 369 12,900 -1,333 Descending FlightAware ADS-B
Sun 07:40:44 PM 40.5667 -73.8842 161° South 311 358 12,500 -1,294 Descending FlightAware ADS-B
Sun 07:41:14 PM 40.5259 -73.8675 163° South 305 351 11,800 -1,406 Descending FlightAware ADS-B
Sun 07:41:48 PM 40.4806 -73.8489 163° South 302 348 11,000 -1,535 Descending FlightAware ADS-B
Sun 07:41:57 PM 40.4691 -73.8442 163° South 305 351 10,700 -1,800 Descending FlightAware ADS-B
Sun 07:42:18 PM 40.4402 -73.8324 163° South 303 349 10,100 -1,588 Descending FlightAware ADS-B
Sun 07:42:31 PM 40.4233 -73.8256 163° South 304 350 9,800 -1,500 Descending FlightAware ADS-B
Sun 07:42:50 PM 40.3982 -73.8156 163° South 301 346 9,300 -1,421 Descending FlightAware ADS-B
Sun 07:43:09 PM 40.3725 -73.8053 163° South 301 346 8,900 -1,333 Descending FlightAware ADS-B
Sun 07:43:26 PM 40.3498 -73.7963 163° South 299 344 8,500 -1,500 Descending FlightAware ADS-B
Sun 07:43:41 PM 40.3295 -73.7881 163° South 299 344 8,100 -1,200 Descending FlightAware ADS-B
Sun 07:43:56 PM 40.3097 -73.7803 163° South 295 339 7,900 -333 Descending FlightAware ADS-B
Sun 07:44:17 PM 40.2827 -73.7671 160° South 297 342 7,900  Level FlightAware ADS-B
Sun 07:44:24 PM 40.2755 -73.7600 143° Southeast 299 344 7,900  Level FlightAware ADS-B
Sun 07:44:37 PM 40.2649 -73.7415 127° Southeast 305 351 7,900  Level FlightAware ADS-B
Sun 07:44:47 PM 40.2605 -73.7235 108° East 308 354 7,900  Level FlightAware ADS-B
Sun 07:44:54 PM 40.2598 -73.7098 94° East 308 354 7,900  Level FlightAware ADS-B
Sun 07:45:02 PM 40.2610 -73.6958 84° East 306 352 7,900  Level FlightAware ADS-B
Sun 07:45:17 PM 40.2649 -73.6682 80° East 306 352 7,900  Level FlightAware ADS-B
Sun 07:45:39 PM 40.2707 -73.6293 79° East 306 352 7,900  Level FlightAware ADS-B
Sun 07:46:16 PM 40.2938 -73.5699 63° Northeast 300 345 7,900  Level FlightAware ADS-B
Sun 07:46:34 PM 40.3155 -73.5601 19° North 282 325 7,900  Level FlightAware ADS-B
Sun 07:46:39 PM 40.3221 -73.5601 360° North 279 321 7,900  Level FlightAware ADS-B
Sun 07:46:53 PM 40.3398 -73.5627 354° North 278 320 7,900  Level FlightAware ADS-B
Sun 07:47:10 PM 40.3616 -73.5670 351° North 277 319 7,900  Level FlightAware ADS-B
Sun 07:47:33 PM 40.3904 -73.5726 352° North 275 316 7,900 -286 Level FlightAware ADS-B
Sun 07:47:52 PM 40.4150 -73.5772 352° North 274 315 7,700 -811 Descending FlightAware ADS-B
Sun 07:48:10 PM 40.4366 -73.5812 352° North 272 313 7,400 -1,171 Descending FlightAware ADS-B
Sun 07:48:33 PM 40.4659 -73.5846 355° North 274 315 6,900 -938 Descending FlightAware ADS-B
Sun 07:48:42 PM 40.4770 -73.5809 14° North 277 319 6,900  Level FlightAware ADS-B
Sun 07:48:53 PM 40.4896 -73.5707 32° Northeast 283 326 6,900  Level FlightAware ADS-B
Sun 07:49:05 PM 40.5016 -73.5569 41° Northeast 288 331 6,900  Level FlightAware ADS-B
Sun 07:49:21 PM 40.5168 -73.5385 43° Northeast 291 335 6,900  Level FlightAware ADS-B
Sun 07:49:38 PM 40.5338 -73.5181 42° Northeast 291 335 6,900 -698 Level FlightAware ADS-B
Sun 07:50:04 PM 40.5593 -73.4878 42° Northeast 286 329 6,400 -1,294 Descending FlightAware ADS-B
Sun 07:50:29 PM 40.5846 -73.4597 40° Northeast 285 328 5,800 -947 Descending FlightAware ADS-B
Sun 07:51:01 PM 40.6180 -73.4310 33° Northeast 256 295 5,500 -429 Descending FlightAware ADS-B
Sun 07:51:11 PM 40.6280 -73.4250 24° Northeast 242 278 5,500 -333 Level FlightAware ADS-B
Sun 07:51:19 PM 40.6360 -73.4220 16° North 229 264 5,400 -889 Descending FlightAware ADS-B
Sun 07:51:38 PM 40.6570 -73.4210 North 224 258 5,100 -714 Descending FlightAware ADS-B
Sun 07:52:01 PM 40.6800 -73.4190 North 228 262 4,900 -279 Descending FlightAware ADS-B
Sun 07:52:21 PM 40.7010 -73.4170 North 229 264 4,900 -556 Level FlightAware ADS-B
Sun 07:52:55 PM 40.7340 -73.4260 348° North 210 242 4,400 -1,000 Descending FlightAware ADS-B
Sun 07:53:15 PM 40.7510 -73.4380 332° Northwest 215 247 4,000 -1,364 Descending FlightAware ADS-B
Sun 07:53:39 PM 40.7720 -73.4550 328° Northwest 217 250 3,400 -1,286 Descending FlightAware ADS-B
Sun 07:53:57 PM 40.7880 -73.4670 330° Northwest 218 251 3,100 -750 Descending FlightAware ADS-B
Sun 07:54:19 PM 40.8060 -73.4810 330° Northwest 220 253 2,900 -353 Descending FlightAware ADS-B
Sun 07:54:31 PM 40.8170 -73.4890 331° Northwest 205 236 2,900  Level FlightAware ADS-B
Sun 07:54:51 PM 40.8330 -73.5020 328° Northwest 189 217 2,900  Level FlightAware ADS-B
Sun 07:55:15 PM 40.8500 -73.5160 328° Northwest 187 215 2,900  Level FlightAware ADS-B
Sun 07:55:21 PM 40.8540 -73.5220 311° West 185 213 2,900  Level FlightAware ADS-B
Sun 07:55:30 PM 40.8570 -73.5310 294° West 182 209 2,900 -545 Level FlightAware ADS-B
Sun 07:55:32 PM 40.8570 -73.5340 270° West 180 207 2,800 -889 Descending FlightAware ADS-B
Sun 07:55:57 PM 40.8510 -73.5590 252° West 176 203 2,500 -878 Descending FlightAware ADS-B
Sun 07:56:13 PM 40.8460 -73.5740 246° West 181 208 2,200 -857 Descending FlightAware ADS-B
Sun 07:56:39 PM 40.8360 -73.5950 238° Southwest 182 209 1,900 -462 Descending FlightAware ADS-B
Sun 07:56:52 PM 40.8250 -73.6100 226° Southwest 187 215 1,900  Level FlightAware ADS-B
Sun 07:57:16 PM 40.8090 -73.6270 219° Southwest 185 213 1,900  Level FlightAware ADS-B
Sun 07:57:34 PM 40.7970 -73.6370 212° Southwest 185 213 1,900  Level FlightAware ADS-B
Sun 07:57:53 PM 40.7840 -73.6470 210° Southwest 185 213 1,900  Level FlightAware ADS-B
Sun 07:58:07 PM 40.7720 -73.6550 207° Southwest 185 213 1,900  Level FlightAware ADS-B
Sun 07:58:25 PM 40.7590 -73.6660 213° Southwest 180 207 1,900  Level FlightAware ADS-B
Sun 07:58:45 PM 40.7450 -73.6770 211° Southwest 180 207 1,900 -150 Level FlightAware ADS-B
Sun 07:59:05 PM 40.7310 -73.6880 211° Southwest 169 194 1,800 -545 Descending FlightAware ADS-B
Sun 07:59:29 PM 40.7160 -73.7000 211° Southwest 148 170 1,500 -818 Descending FlightAware ADS-B
Sun 07:59:49 PM 40.7040 -73.7090 210° Southwest 131 151 1,200 -750 Descending FlightAware ADS-B
Sun 08:00:09 PM 40.6950 -73.7160 211° Southwest 126 145 1,000 -667 Descending FlightAware ADS-B
Sun 08:00:25 PM 40.6860 -73.7230 211° Southwest 130 150 800 -667 Descending FlightAware ADS-B
Sun 08:00:45 PM 40.6760 -73.7310 211° Southwest 130 150 600 -600 Descending FlightAware ADS-B
Sun 08:01:05 PM 40.6660 -73.7390 211° Southwest 126 145 400 -706 Descending FlightAware ADS-B
Sun 08:01:19 PM 40.6580 -73.7450 210° Southwest 125 144 200 -857 Descending FlightAware ADS-B
Sun 08:01:39 PM 40.6480 -73.7530 211° Southwest 130 150 -600 Descending FlightAware ADS-B
Sun 08:02:03 PM 40.6370 -73.7620 212° Southwest 120 138  Level FlightAware ADS-B

Login

Don't have an account? Register now (free) for customized features, flight alerts, and more!